Time;durP1;ratioP1;P1;durP2;ratioP2;P2;SDS_P1;SDS_P2;PMS_P1;PMS_P2;Temp;Humidity;BMP_temperature;BMP_pressure;BME280_temperature;BME280_humidity;BME280_pressure;Samples;Min_cycle;Max_cycle;Signal;HPM_P1;HPM_P2
2022/03/08 00:02:24;;;;;;;58.80;9.73;;;;;;;;;;5050014;28;20197;-64
2022/03/08 00:04:50;;;;;;;97.90;14.27;;;;;;;;;;5045987;28;20770;-64
2022/03/08 00:07:16;;;;;;;39.17;7.43;;;;;;;;;;5055058;28;20211;-64
2022/03/08 00:09:43;;;;;;;74.87;11.10;;;;;;;;;;5055106;28;20203;-64
2022/03/08 00:12:09;;;;;;;60.40;9.63;;;;;;;;;;5050743;28;20182;-64
2022/03/08 00:14:35;;;;;;;46.17;7.87;;;;;;;;;;5049593;28;20183;-64
2022/03/08 00:17:02;;;;;;;84.60;12.53;;;;;;;;;;5051510;28;20589;-64
2022/03/08 00:19:28;;;;;;;55.00;9.13;;;;;;;;;;5057542;28;20648;-64
2022/03/08 00:21:54;;;;;;;110.10;15.50;;;;;;;;;;5055077;28;20320;-64
2022/03/08 00:24:20;;;;;;;75.07;11.53;;;;;;;;;;5053227;28;20275;-64
2022/03/08 00:26:46;;;;;;;89.33;13.37;;;;;;;;;;5050020;28;20206;-64
2022/03/08 00:29:12;;;;;;;63.07;10.27;;;;;;;;;;5055052;28;20221;-63
2022/03/08 00:31:38;;;;;;;59.80;9.40;;;;;;;;;;5049787;28;20194;-64
2022/03/08 00:34:04;;;;;;;90.17;13.10;;;;;;;;;;5047368;28;20267;-64
2022/03/08 00:36:30;;;;;;;68.63;10.50;;;;;;;;;;5053701;28;20213;-64
2022/03/08 00:38:56;;;;;;;67.27;10.17;;;;;;;;;;5047974;28;20696;-64
2022/03/08 00:41:22;;;;;;;60.27;9.37;;;;;;;;;;5048029;28;20260;-64
2022/03/08 00:43:48;;;;;;;75.63;11.70;;;;;;;;;;5056236;28;20247;-64
2022/03/08 00:46:15;;;;;;;56.17;9.10;;;;;;;;;;5052550;28;20198;-64
2022/03/08 00:48:41;;;;;;;94.30;13.60;;;;;;;;;;5045645;28;20207;-64
2022/03/08 00:51:07;;;;;;;60.40;9.33;;;;;;;;;;5052013;28;20187;-64
2022/03/08 00:53:33;;;;;;;89.07;12.70;;;;;;;;;;5054916;28;20183;-64
2022/03/08 00:55:59;;;;;;;90.20;13.30;;;;;;;;;;5050326;28;20270;-64
2022/03/08 00:58:25;;;;;;;52.37;8.90;;;;;;;;;;5050636;28;20293;-64
2022/03/08 01:00:51;;;;;;;75.63;11.33;;;;;;;;;;5055681;28;20187;-64
2022/03/08 01:03:17;;;;;;;92.07;13.20;;;;;;;;;;5050561;28;20217;-63
2022/03/08 01:05:43;;;;;;;91.83;13.20;;;;;;;;;;5049569;28;20190;-64
2022/03/08 01:08:09;;;;;;;63.77;9.80;;;;;;;;;;5051984;28;20249;-64
2022/03/08 01:10:35;;;;;;;115.37;15.77;;;;;;;;;;5046770;28;20770;-63
2022/03/08 01:13:01;;;;;;;49.77;8.27;;;;;;;;;;5050696;28;20187;-64
2022/03/08 01:15:28;;;;;;;57.20;9.00;;;;;;;;;;5054369;28;20191;-64
2022/03/08 01:17:55;;;;;;;95.47;13.83;;;;;;;;;;5050040;28;20223;-64
2022/03/08 01:20:21;;;;;;;66.50;10.87;;;;;;;;;;5052558;28;20716;-63
2022/03/08 01:22:47;;;;;;;75.43;12.23;;;;;;;;;;5048770;28;20277;-64
2022/03/08 01:25:14;;;;;;;61.10;10.03;;;;;;;;;;5033591;28;20622;-64
2022/03/08 01:27:40;;;;;;;77.67;12.10;;;;;;;;;;5045720;28;20214;-63
2022/03/08 01:30:07;;;;;;;81.20;12.27;;;;;;;;;;5051695;28;20243;-64
2022/03/08 01:32:33;;;;;;;94.73;14.10;;;;;;;;;;5047496;28;20206;-64
2022/03/08 01:34:59;;;;;;;67.97;11.13;;;;;;;;;;5044376;28;20191;-64
2022/03/08 01:37:25;;;;;;;47.47;8.83;;;;;;;;;;5034847;28;20194;-64
2022/03/08 01:39:51;;;;;;;85.73;12.27;;;;;;;;;;5052470;28;20654;-64
2022/03/08 01:42:22;;;;;;;81.03;12.20;;;;;;;;;;5045088;28;20529;-64
2022/03/08 01:44:48;;;;;;;108.40;15.90;;;;;;;;;;5046179;28;20202;-65
2022/03/08 01:47:18;;;;;;;85.43;12.73;;;;;;;;;;5047603;28;21355;-63
2022/03/08 01:49:44;;;;;;;75.87;11.63;;;;;;;;;;5054020;28;20210;-64
2022/03/08 01:52:11;;;;;;;47.53;8.83;;;;;;;;;;5048299;28;20266;-64
2022/03/08 01:54:37;;;;;;;90.10;13.73;;;;;;;;;;5050606;28;20210;-64
2022/03/08 01:57:03;;;;;;;63.97;10.33;;;;;;;;;;5049745;28;20567;-64
2022/03/08 01:59:29;;;;;;;71.63;10.97;;;;;;;;;;5052072;28;20239;-64
2022/03/08 02:01:55;;;;;;;99.73;13.93;;;;;;;;;;5051099;28;20262;-64
2022/03/08 02:04:21;;;;;;;64.77;10.77;;;;;;;;;;5031747;28;20282;-64
2022/03/08 02:06:47;;;;;;;87.37;13.50;;;;;;;;;;5048279;28;20631;-64
2022/03/08 02:09:13;;;;;;;80.20;12.17;;;;;;;;;;5051171;28;20203;-64
2022/03/08 02:11:40;;;;;;;68.37;10.83;;;;;;;;;;5049347;28;20628;-64
2022/03/08 02:14:06;;;;;;;65.80;10.77;;;;;;;;;;5037444;28;20265;-64
2022/03/08 02:16:32;;;;;;;66.53;10.90;;;;;;;;;;5048633;28;20293;-64
2022/03/08 02:18:58;;;;;;;55.17;9.50;;;;;;;;;;5052419;28;20651;-64
2022/03/08 02:21:25;;;;;;;74.47;11.47;;;;;;;;;;5049632;28;20191;-63
2022/03/08 02:23:51;;;;;;;87.63;12.67;;;;;;;;;;5052983;28;20239;-64
2022/03/08 02:26:17;;;;;;;41.30;7.43;;;;;;;;;;5049782;28;21103;-64
2022/03/08 02:28:44;;;;;;;96.83;14.27;;;;;;;;;;5053496;28;20278;-64
2022/03/08 02:31:10;;;;;;;55.37;9.50;;;;;;;;;;5055923;28;20202;-64
2022/03/08 02:33:36;;;;;;;83.53;12.67;;;;;;;;;;5045145;28;20202;-64
2022/03/08 02:36:02;;;;;;;64.67;10.27;;;;;;;;;;5050167;28;20214;-64
2022/03/08 02:38:28;;;;;;;57.57;9.30;;;;;;;;;;5037409;28;20534;-64
2022/03/08 02:40:53;;;;;;;122.20;16.83;;;;;;;;;;5048986;28;20270;-64
2022/03/08 02:43:19;;;;;;;84.07;12.63;;;;;;;;;;5050232;28;20194;-64
2022/03/08 02:45:45;;;;;;;95.47;14.03;;;;;;;;;;5050397;28;20215;-64
2022/03/08 02:48:12;;;;;;;82.93;12.37;;;;;;;;;;5049425;28;20203;-63
2022/03/08 02:50:38;;;;;;;100.40;14.57;;;;;;;;;;5044447;28;20297;-64
2022/03/08 02:53:04;;;;;;;89.57;13.33;;;;;;;;;;5051917;28;20646;-64
2022/03/08 02:55:31;;;;;;;92.77;13.80;;;;;;;;;;5053501;28;20273;-64
2022/03/08 02:57:57;;;;;;;98.83;14.77;;;;;;;;;;5056520;28;20199;-64
2022/03/08 03:00:24;;;;;;;91.63;13.80;;;;;;;;;;5057955;28;20191;-64
2022/03/08 03:02:51;;;;;;;112.87;15.67;;;;;;;;;;5053383;28;20198;-64
2022/03/08 03:05:16;;;;;;;100.67;14.83;;;;;;;;;;5046833;28;20187;-64
2022/03/08 03:07:42;;;;;;;90.43;13.63;;;;;;;;;;5039490;28;20218;-64
2022/03/08 03:10:10;;;;;;;79.90;12.30;;;;;;;;;;5057276;28;20207;-64
2022/03/08 03:12:36;;;;;;;77.40;12.07;;;;;;;;;;5052561;28;20263;-63
2022/03/08 03:15:03;;;;;;;97.63;14.33;;;;;;;;;;5054078;28;20683;-64
2022/03/08 03:17:29;;;;;;;77.10;12.30;;;;;;;;;;5055873;28;20199;-64
2022/03/08 03:19:56;;;;;;;89.73;13.73;;;;;;;;;;5052125;28;20632;-64
2022/03/08 03:22:22;;;;;;;82.17;12.83;;;;;;;;;;5056623;28;20195;-64
2022/03/08 03:24:48;;;;;;;99.57;14.13;;;;;;;;;;5054111;28;20627;-64
2022/03/08 03:27:13;;;;;;;82.63;12.33;;;;;;;;;;5048152;28;20222;-63
2022/03/08 03:29:39;;;;;;;93.43;14.27;;;;;;;;;;5050462;28;20203;-64
2022/03/08 03:32:05;;;;;;;123.13;17.50;;;;;;;;;;5055942;28;20194;-64
2022/03/08 03:34:31;;;;;;;89.03;13.67;;;;;;;;;;5049544;28;20179;-64
2022/03/08 03:36:57;;;;;;;79.90;12.73;;;;;;;;;;5059493;28;20206;-64
2022/03/08 03:39:23;;;;;;;88.30;13.57;;;;;;;;;;5056946;28;22774;-64
2022/03/08 03:41:49;;;;;;;121.53;16.77;;;;;;;;;;5034716;28;20183;-64
2022/03/08 03:44:15;;;;;;;82.07;12.23;;;;;;;;;;5055489;28;20190;-64
2022/03/08 03:46:41;;;;;;;141.70;18.90;;;;;;;;;;5049309;28;20210;-64
2022/03/08 03:49:07;;;;;;;105.87;15.37;;;;;;;;;;5057484;28;21001;-64
2022/03/08 03:51:33;;;;;;;76.50;12.20;;;;;;;;;;5055493;28;20175;-64
2022/03/08 03:53:59;;;;;;;98.67;14.43;;;;;;;;;;5049733;28;20273;-64
2022/03/08 03:56:25;;;;;;;97.67;14.27;;;;;;;;;;5031833;28;20227;-64
2022/03/08 03:58:51;;;;;;;118.47;16.77;;;;;;;;;;5056132;28;20232;-64
2022/03/08 04:01:17;;;;;;;99.17;14.33;;;;;;;;;;5049810;28;20183;-64
2022/03/08 04:03:43;;;;;;;126.13;17.03;;;;;;;;;;5051634;28;20335;-65
2022/03/08 04:06:09;;;;;;;97.27;14.40;;;;;;;;;;5047898;28;20187;-64
2022/03/08 04:08:35;;;;;;;93.83;13.83;;;;;;;;;;5054277;28;20245;-64
2022/03/08 04:11:01;;;;;;;146.03;19.40;;;;;;;;;;5051213;28;20191;-64
2022/03/08 04:13:27;;;;;;;133.33;18.23;;;;;;;;;;5052501;28;20632;-64
2022/03/08 04:15:53;;;;;;;104.97;14.50;;;;;;;;;;5051380;28;20195;-64
2022/03/08 04:18:19;;;;;;;69.73;10.47;;;;;;;;;;5053082;28;20233;-65
2022/03/08 04:20:45;;;;;;;127.63;17.50;;;;;;;;;;5047827;28;20297;-64
2022/03/08 04:23:11;;;;;;;86.70;12.57;;;;;;;;;;5055662;28;20387;-64
2022/03/08 04:25:37;;;;;;;125.23;17.17;;;;;;;;;;5052993;28;20624;-64
2022/03/08 04:28:03;;;;;;;94.37;14.03;;;;;;;;;;5035957;28;20283;-64
2022/03/08 04:30:29;;;;;;;73.27;11.00;;;;;;;;;;5052122;28;20257;-64
2022/03/08 04:32:55;;;;;;;95.50;14.00;;;;;;;;;;5052356;28;20194;-64
2022/03/08 04:35:21;;;;;;;104.83;15.10;;;;;;;;;;5050139;28;20276;-64
2022/03/08 04:37:47;;;;;;;112.83;16.07;;;;;;;;;;5051783;28;22279;-64
2022/03/08 04:40:14;;;;;;;87.17;13.33;;;;;;;;;;5053891;28;20198;-64
2022/03/08 04:42:40;;;;;;;121.23;16.10;;;;;;;;;;5049652;28;20656;-64
2022/03/08 04:45:07;;;;;;;111.10;15.13;;;;;;;;;;5050959;28;20896;-64
2022/03/08 04:47:35;;;;;;;72.43;11.07;;;;;;;;;;5053145;28;20313;-64
2022/03/08 04:50:01;;;;;;;77.13;11.43;;;;;;;;;;5053547;28;20373;-64
2022/03/08 04:52:27;;;;;;;112.13;15.37;;;;;;;;;;5045852;28;20642;-64
2022/03/08 04:54:53;;;;;;;124.67;17.17;;;;;;;;;;5035138;28;20369;-64
2022/03/08 04:57:19;;;;;;;103.17;14.97;;;;;;;;;;5047974;28;20206;-64
2022/03/08 04:59:45;;;;;;;111.13;15.70;;;;;;;;;;5049730;28;20191;-64
2022/03/08 05:02:11;;;;;;;109.73;14.93;;;;;;;;;;5052224;28;20187;-64
2022/03/08 05:04:36;;;;;;;97.37;13.73;;;;;;;;;;5047189;28;22004;-64
2022/03/08 05:07:02;;;;;;;102.00;14.80;;;;;;;;;;5048717;28;20217;-63
2022/03/08 05:09:28;;;;;;;90.90;13.37;;;;;;;;;;5061325;28;20316;-64
2022/03/08 05:11:54;;;;;;;98.90;14.23;;;;;;;;;;5047950;28;20554;-64
2022/03/08 05:14:20;;;;;;;96.87;14.27;;;;;;;;;;5052898;28;20187;-63
2022/03/08 05:16:46;;;;;;;110.73;15.83;;;;;;;;;;5053318;28;20207;-63
2022/03/08 05:19:12;;;;;;;82.97;11.50;;;;;;;;;;5048025;28;23201;-64
2022/03/08 05:21:38;;;;;;;118.87;16.07;;;;;;;;;;5053188;28;20370;-64
2022/03/08 05:24:04;;;;;;;95.73;13.93;;;;;;;;;;5053590;28;20187;-64
2022/03/08 05:26:30;;;;;;;106.50;15.10;;;;;;;;;;5047828;28;20270;-63
2022/03/08 05:28:56;;;;;;;122.67;16.93;;;;;;;;;;5045981;28;20225;-64
2022/03/08 05:31:22;;;;;;;66.57;10.40;;;;;;;;;;5059680;28;20229;-63
2022/03/08 05:33:48;;;;;;;108.80;15.37;;;;;;;;;;5053948;28;20234;-63
2022/03/08 05:36:14;;;;;;;118.53;16.50;;;;;;;;;;5057705;28;20190;-64
2022/03/08 05:38:40;;;;;;;97.00;12.93;;;;;;;;;;5054294;28;20255;-64
2022/03/08 05:41:05;;;;;;;94.87;13.87;;;;;;;;;;5054245;28;20292;-64
2022/03/08 05:43:31;;;;;;;71.77;11.10;;;;;;;;;;5060474;28;20183;-64
2022/03/08 05:45:57;;;;;;;79.83;12.13;;;;;;;;;;5053358;28;20273;-64
2022/03/08 05:48:23;;;;;;;89.93;12.63;;;;;;;;;;5042039;28;20264;-64
2022/03/08 05:50:49;;;;;;;106.03;14.70;;;;;;;;;;5051221;28;20556;-64
2022/03/08 05:53:15;;;;;;;97.50;13.57;;;;;;;;;;5054728;28;20575;-64
2022/03/08 05:55:42;;;;;;;110.73;15.27;;;;;;;;;;5054116;28;20235;-64
2022/03/08 05:58:08;;;;;;;71.77;10.60;;;;;;;;;;5041683;28;20222;-64
2022/03/08 06:00:34;;;;;;;70.77;10.53;;;;;;;;;;5053859;28;20191;-64
2022/03/08 06:03:00;;;;;;;72.30;10.77;;;;;;;;;;5039748;28;20357;-64
2022/03/08 06:05:26;;;;;;;129.77;17.40;;;;;;;;;;5052937;28;20195;-64
2022/03/08 06:07:52;;;;;;;107.07;14.83;;;;;;;;;;5056415;28;20218;-64
2022/03/08 06:10:17;;;;;;;82.23;11.83;;;;;;;;;;5042932;28;20211;-64
2022/03/08 06:12:44;;;;;;;144.37;19.23;;;;;;;;;;5045649;28;20225;-64
2022/03/08 06:15:10;;;;;;;80.80;11.83;;;;;;;;;;5027449;28;20191;-64
2022/03/08 06:17:36;;;;;;;74.60;11.70;;;;;;;;;;5037337;28;20266;-64
2022/03/08 06:20:02;;;;;;;102.70;14.67;;;;;;;;;;5051199;28;20249;-64
2022/03/08 06:22:28;;;;;;;80.67;12.03;;;;;;;;;;5042520;28;20190;-65
2022/03/08 06:24:54;;;;;;;108.33;14.70;;;;;;;;;;5058542;28;20654;-66
2022/03/08 06:27:20;;;;;;;80.23;10.97;;;;;;;;;;5051505;28;20234;-65
2022/03/08 06:29:45;;;;;;;143.07;20.03;;;;;;;;;;5039186;28;20649;-64
2022/03/08 06:32:11;;;;;;;101.43;15.17;;;;;;;;;;5049271;28;20194;-64
2022/03/08 06:34:37;;;;;;;104.37;15.50;;;;;;;;;;5051506;28;20677;-64
2022/03/08 06:37:04;;;;;;;89.93;13.90;;;;;;;;;;5055625;28;20264;-64
2022/03/08 06:39:30;;;;;;;133.80;19.17;;;;;;;;;;5049289;28;20187;-64
2022/03/08 06:41:56;;;;;;;159.60;22.13;;;;;;;;;;5044259;28;20190;-64
2022/03/08 06:44:22;;;;;;;133.13;18.60;;;;;;;;;;5047315;28;20209;-64
2022/03/08 06:46:48;;;;;;;114.30;16.33;;;;;;;;;;5053363;28;20215;-64
2022/03/08 06:49:15;;;;;;;92.03;13.90;;;;;;;;;;5054800;28;20203;-64
2022/03/08 06:51:41;;;;;;;139.97;20.10;;;;;;;;;;5047309;28;20814;-64
2022/03/08 06:54:08;;;;;;;85.30;13.43;;;;;;;;;;5042907;28;20322;-64
2022/03/08 06:56:34;;;;;;;108.37;16.23;;;;;;;;;;5052275;28;20213;-64
2022/03/08 06:59:01;;;;;;;97.30;14.40;;;;;;;;;;5053168;28;20192;-64
2022/03/08 07:01:28;;;;;;;111.20;16.20;;;;;;;;;;5054689;28;20199;-64
2022/03/08 07:03:54;;;;;;;145.13;19.67;;;;;;;;;;5044629;28;20216;-64
2022/03/08 07:06:20;;;;;;;98.40;14.27;;;;;;;;;;5046997;28;20238;-64
2022/03/08 07:08:46;;;;;;;159.30;22.03;;;;;;;;;;5053763;28;20298;-65
2022/03/08 07:11:13;;;;;;;119.93;17.30;;;;;;;;;;5046335;28;20202;-64
2022/03/08 07:13:39;;;;;;;124.93;17.80;;;;;;;;;;5032835;28;20255;-69
2022/03/08 07:16:05;;;;;;;103.63;14.37;;;;;;;;;;5054052;28;20183;-69
2022/03/08 07:18:31;;;;;;;147.20;19.93;;;;;;;;;;5051884;28;20186;-69
2022/03/08 07:20:57;;;;;;;91.87;13.90;;;;;;;;;;5050367;28;20225;-68
2022/03/08 07:23:23;;;;;;;110.00;16.40;;;;;;;;;;5049216;28;20307;-71
2022/03/08 07:25:49;;;;;;;129.77;19.07;;;;;;;;;;5049527;28;20708;-72
2022/03/08 07:28:15;;;;;;;172.43;23.77;;;;;;;;;;5040889;28;20295;-71
2022/03/08 07:30:41;;;;;;;129.73;18.80;;;;;;;;;;5039750;28;20210;-70
2022/03/08 07:33:07;;;;;;;121.63;17.23;;;;;;;;;;5052661;28;20186;-72
2022/03/08 07:35:33;;;;;;;121.60;17.37;;;;;;;;;;5054324;28;20198;-70
2022/03/08 07:37:59;;;;;;;121.00;17.17;;;;;;;;;;5044725;28;20293;-69
2022/03/08 07:40:25;;;;;;;127.40;18.27;;;;;;;;;;5034442;28;20338;-72
2022/03/08 07:42:52;;;;;;;142.23;20.33;;;;;;;;;;5047208;28;20191;-75
2022/03/08 07:45:18;;;;;;;185.60;25.10;;;;;;;;;;5045651;28;20270;-70
2022/03/08 07:47:44;;;;;;;112.90;16.73;;;;;;;;;;5048474;28;20674;-73
2022/03/08 07:50:11;;;;;;;117.70;17.60;;;;;;;;;;5046302;28;20286;-68
2022/03/08 07:52:38;;;;;;;212.73;27.70;;;;;;;;;;5026394;28;20214;-69
2022/03/08 07:55:04;;;;;;;92.43;14.00;;;;;;;;;;5049980;28;20183;-68
2022/03/08 07:57:30;;;;;;;82.57;13.00;;;;;;;;;;5053437;28;20241;-68
2022/03/08 07:59:56;;;;;;;76.37;12.27;;;;;;;;;;5054319;28;20665;-68
2022/03/08 08:02:22;;;;;;;71.93;11.83;;;;;;;;;;5057341;28;20187;-68
2022/03/08 08:04:48;;;;;;;137.70;19.67;;;;;;;;;;5041815;28;21890;-69
2022/03/08 08:07:14;;;;;;;131.67;18.37;;;;;;;;;;5027048;28;20807;-68
2022/03/08 08:09:40;;;;;;;119.27;17.87;;;;;;;;;;5029574;28;20302;-71
2022/03/08 08:12:07;;;;;;;95.53;14.63;;;;;;;;;;5043622;28;20220;-64
2022/03/08 08:14:33;;;;;;;103.63;15.50;;;;;;;;;;5048952;28;20933;-62
2022/03/08 08:16:59;;;;;;;103.63;15.43;;;;;;;;;;5053349;28;20261;-63
2022/03/08 08:19:26;;;;;;;113.63;16.83;;;;;;;;;;5046275;28;20258;-63
2022/03/08 08:21:52;;;;;;;266.40;34.93;;;;;;;;;;5039969;28;20183;-67
2022/03/08 08:24:18;;;;;;;70.50;11.77;;;;;;;;;;5042256;28;20192;-71
2022/03/08 08:26:44;;;;;;;111.90;16.40;;;;;;;;;;5044561;28;20225;-69
2022/03/08 08:29:10;;;;;;;109.57;16.17;;;;;;;;;;5047398;28;20286;-69
2022/03/08 08:31:36;;;;;;;118.30;17.47;;;;;;;;;;5032895;28;20657;-68
2022/03/08 08:34:02;;;;;;;97.53;14.87;;;;;;;;;;5056059;28;22876;-68
2022/03/08 08:36:28;;;;;;;93.77;14.47;;;;;;;;;;5031957;28;20688;-67
2022/03/08 08:38:54;;;;;;;149.53;20.93;;;;;;;;;;5049626;28;20248;-69
2022/03/08 08:41:20;;;;;;;98.43;14.63;;;;;;;;;;5046708;28;21020;-70
2022/03/08 08:43:46;;;;;;;174.57;23.50;;;;;;;;;;5051512;28;20183;-70
2022/03/08 08:46:12;;;;;;;175.70;23.43;;;;;;;;;;5020006;28;20179;-70
2022/03/08 08:48:38;;;;;;;191.70;25.97;;;;;;;;;;5043033;28;20263;-69
2022/03/08 08:51:04;;;;;;;182.67;24.63;;;;;;;;;;5035756;28;20727;-70
2022/03/08 08:53:30;;;;;;;198.80;26.77;;;;;;;;;;5013727;28;20187;-69
2022/03/08 08:55:56;;;;;;;166.90;22.73;;;;;;;;;;5031260;28;20301;-70
2022/03/08 08:58:22;;;;;;;96.47;14.67;;;;;;;;;;5041123;28;20200;-74
2022/03/08 09:00:48;;;;;;;166.30;23.00;;;;;;;;;;5032468;28;20240;-71
2022/03/08 09:03:16;;;;;;;191.60;25.03;;;;;;;;;;5034482;28;20206;-72
2022/03/08 09:05:45;;;;;;;189.17;25.10;;;;;;;;;;5010000;28;20885;-70
2022/03/08 09:08:12;;;;;;;153.03;20.80;;;;;;;;;;5009119;28;20211;-71
2022/03/08 09:10:38;;;;;;;282.30;37.77;;;;;;;;;;5009329;28;20218;-70
2022/03/08 09:13:05;;;;;;;130.83;18.43;;;;;;;;;;5032250;28;20842;-73
2022/03/08 09:15:32;;;;;;;211.93;27.83;;;;;;;;;;5029149;28;20312;-70
2022/03/08 09:17:58;;;;;;;184.03;24.07;;;;;;;;;;5022677;28;20881;-70
2022/03/08 09:20:26;;;;;;;162.33;22.37;;;;;;;;;;5014874;28;21399;-72
2022/03/08 09:22:53;;;;;;;138.57;19.67;;;;;;;;;;5026434;28;20190;-71
2022/03/08 09:25:19;;;;;;;186.37;25.07;;;;;;;;;;5036868;28;20178;-71
2022/03/08 09:27:46;;;;;;;199.57;27.37;;;;;;;;;;5009579;28;20672;-71
2022/03/08 09:30:12;;;;;;;126.10;18.00;;;;;;;;;;5015905;28;20207;-70
2022/03/08 09:32:38;;;;;;;176.07;24.10;;;;;;;;;;5033463;28;20381;-71
2022/03/08 09:35:04;;;;;;;231.47;30.57;;;;;;;;;;5023715;28;20323;-71
2022/03/08 09:37:30;;;;;;;179.37;23.87;;;;;;;;;;5020298;28;20896;-76
2022/03/08 09:39:56;;;;;;;184.37;24.40;;;;;;;;;;5020609;28;20218;-70
2022/03/08 09:42:23;;;;;;;203.27;26.40;;;;;;;;;;5021494;28;20194;-73
2022/03/08 09:44:49;;;;;;;157.70;21.87;;;;;;;;;;5043666;28;20195;-71
2022/03/08 09:47:22;;;;;;;141.30;19.87;;;;;;;;;;5035885;28;20213;-72
2022/03/08 09:49:48;;;;;;;159.10;22.40;;;;;;;;;;5029423;28;20297;-73
2022/03/08 09:52:15;;;;;;;166.43;23.03;;;;;;;;;;5032067;28;20284;-72
2022/03/08 09:54:43;;;;;;;166.27;23.43;;;;;;;;;;5036282;28;20183;-72
2022/03/08 09:57:10;;;;;;;150.77;20.93;;;;;;;;;;5027972;28;20212;-71
2022/03/08 09:59:36;;;;;;;161.97;22.37;;;;;;;;;;5039049;28;20251;-72
2022/03/08 10:02:02;;;;;;;213.07;28.60;;;;;;;;;;5033617;28;20290;-71
2022/03/08 10:04:28;;;;;;;174.20;23.37;;;;;;;;;;5027801;28;20208;-71
2022/03/08 10:06:54;;;;;;;204.00;26.70;;;;;;;;;;5005156;28;20244;-71
2022/03/08 10:09:21;;;;;;;169.97;22.77;;;;;;;;;;5030649;28;20211;-72
2022/03/08 10:11:55;;;;;;;167.57;23.10;;;;;;;;;;5022572;28;20927;-73
2022/03/08 10:14:37;;;;;;;126.37;18.60;;;;;;;;;;5030584;28;20244;-71
2022/03/08 10:17:03;;;;;;;106.80;16.33;;;;;;;;;;5047494;28;20217;-71
2022/03/08 10:19:29;;;;;;;192.27;26.00;;;;;;;;;;5029856;28;20533;-71
2022/03/08 10:21:57;;;;;;;137.57;19.60;;;;;;;;;;5035600;28;20191;-71
2022/03/08 10:24:25;;;;;;;58.93;10.67;;;;;;;;;;5039350;28;20202;-72
2022/03/08 10:26:55;;;;;;;161.03;22.03;;;;;;;;;;5038819;28;20293;-74
2022/03/08 10:29:25;;;;;;;57.43;10.30;;;;;;;;;;5044914;28;20233;-71
2022/03/08 10:32:03;;;;;;;349.23;45.73;;;;;;;;;;5038680;28;20231;-72
2022/03/08 10:34:30;;;;;;;142.30;20.33;;;;;;;;;;5012134;28;20300;-71
2022/03/08 10:37:10;;;;;;;169.30;23.67;;;;;;;;;;5018010;28;20291;-71
2022/03/08 10:39:47;;;;;;;196.30;26.50;;;;;;;;;;5027713;28;20737;-73
2022/03/08 10:42:18;;;;;;;153.93;21.60;;;;;;;;;;5012123;28;20688;-73
2022/03/08 10:44:44;;;;;;;156.27;21.77;;;;;;;;;;5032680;28;21831;-73
2022/03/08 10:47:12;;;;;;;148.13;21.17;;;;;;;;;;5034685;28;20981;-73
2022/03/08 10:49:52;;;;;;;157.97;22.23;;;;;;;;;;5038418;28;20637;-74
2022/03/08 10:52:18;;;;;;;141.47;20.10;;;;;;;;;;5021242;28;21577;-71
2022/03/08 10:54:44;;;;;;;133.17;19.30;;;;;;;;;;5025597;28;20239;-72
2022/03/08 10:57:10;;;;;;;193.23;26.23;;;;;;;;;;5032874;28;20256;-73
2022/03/08 10:59:36;;;;;;;119.33;17.40;;;;;;;;;;5033228;28;20204;-72
2022/03/08 11:02:18;;;;;;;99.10;15.17;;;;;;;;;;5011542;28;20229;-72
2022/03/08 11:04:44;;;;;;;204.03;28.00;;;;;;;;;;5024507;28;20567;-73
2022/03/08 11:07:11;;;;;;;167.43;23.70;;;;;;;;;;5024831;28;20256;-73
2022/03/08 11:09:37;;;;;;;130.07;19.23;;;;;;;;;;5010742;28;20211;-73
2022/03/08 11:12:04;;;;;;;162.93;23.37;;;;;;;;;;5026730;28;20272;-72
2022/03/08 11:14:30;;;;;;;120.10;18.63;;;;;;;;;;5014080;28;20285;-71
2022/03/08 11:16:56;;;;;;;122.67;18.57;;;;;;;;;;5027090;28;20209;-72
2022/03/08 11:19:26;;;;;;;136.73;20.20;;;;;;;;;;5045407;28;20667;-72
2022/03/08 11:21:52;;;;;;;132.43;18.97;;;;;;;;;;5035028;28;20182;-72
2022/03/08 11:24:19;;;;;;;164.50;22.73;;;;;;;;;;5023796;28;20342;-69
2022/03/08 11:26:45;;;;;;;176.37;25.37;;;;;;;;;;5026352;28;20221;-71
2022/03/08 11:29:12;;;;;;;228.07;31.20;;;;;;;;;;5034341;28;20222;-69
2022/03/08 11:31:38;;;;;;;150.03;21.43;;;;;;;;;;5032848;28;20195;-70
2022/03/08 11:34:09;;;;;;;130.87;19.17;;;;;;;;;;5018423;28;20179;-71
2022/03/08 11:36:36;;;;;;;151.27;21.70;;;;;;;;;;5035037;28;20209;-74
2022/03/08 11:39:11;;;;;;;154.53;22.27;;;;;;;;;;5036592;28;20276;-73
2022/03/08 11:41:37;;;;;;;98.37;15.93;;;;;;;;;;5015483;28;20182;-69
2022/03/08 11:44:04;;;;;;;166.80;23.70;;;;;;;;;;5034611;28;20203;-71
2022/03/08 11:46:30;;;;;;;190.40;27.07;;;;;;;;;;5029725;28;20207;-70
2022/03/08 11:48:58;;;;;;;175.53;24.80;;;;;;;;;;5023364;28;20193;-70
2022/03/08 11:51:27;;;;;;;66.70;12.27;;;;;;;;;;5031341;28;20186;-69
2022/03/08 11:54:20;;;;;;;153.33;22.37;;;;;;;;;;5038195;28;21899;-70
2022/03/08 11:56:47;;;;;;;92.10;15.43;;;;;;;;;;5033702;28;20215;-68
2022/03/08 11:59:13;;;;;;;76.57;13.43;;;;;;;;;;5055492;28;20601;-71
2022/03/08 12:01:39;;;;;;;116.20;18.23;;;;;;;;;;5040239;28;20198;-70
2022/03/08 12:04:07;;;;;;;128.07;19.63;;;;;;;;;;5042684;28;20239;-73
2022/03/08 12:06:38;;;;;;;67.37;12.80;;;;;;;;;;5024588;28;20332;-70
2022/03/08 12:09:07;;;;;;;95.83;15.73;;;;;;;;;;5036760;28;20197;-71
2022/03/08 12:11:35;;;;;;;101.97;15.97;;;;;;;;;;5050214;28;20179;-74
2022/03/08 12:14:09;;;;;;;82.87;14.50;;;;;;;;;;5037048;28;20253;-70
2022/03/08 12:16:35;;;;;;;105.00;16.87;;;;;;;;;;5047596;28;20472;-74
2022/03/08 12:19:03;;;;;;;149.77;21.90;;;;;;;;;;5043139;28;20270;-69
2022/03/08 12:21:30;;;;;;;167.97;25.43;;;;;;;;;;5045982;28;20216;-74
2022/03/08 12:23:56;;;;;;;85.60;14.23;;;;;;;;;;5043665;28;20280;-74
2022/03/08 12:26:28;;;;;;;219.13;31.20;;;;;;;;;;5045721;28;20238;-73
2022/03/08 12:29:15;;;;;;;112.93;17.23;;;;;;;;;;5038134;28;20188;-69
2022/03/08 12:32:05;;;;;;;175.87;24.27;;;;;;;;;;5042489;28;20699;-68
2022/03/08 12:34:42;;;;;;;85.83;14.60;;;;;;;;;;5031649;28;20290;-65
2022/03/08 12:37:19;;;;;;;134.60;20.83;;;;;;;;;;5018749;28;20221;-67
2022/03/08 12:40:02;;;;;;;113.80;22.10;;;;;;;;;;5046322;28;20239;-66
2022/03/08 12:42:44;;;;;;;156.97;28.07;;;;;;;;;;5040677;28;20207;-73
2022/03/08 12:45:15;;;;;;;99.50;20.17;;;;;;;;;;5046507;28;20261;-69
2022/03/08 12:47:46;;;;;;;142.23;24.10;;;;;;;;;;5046608;28;20211;-69
2022/03/08 12:50:20;;;;;;;110.93;18.97;;;;;;;;;;5045971;28;20619;-70
2022/03/08 12:52:48;;;;;;;130.77;23.17;;;;;;;;;;5046920;28;20182;-71
2022/03/08 12:55:25;;;;;;;144.97;24.50;;;;;;;;;;5043166;28;20671;-71
2022/03/08 12:57:56;;;;;;;186.43;29.57;;;;;;;;;;5042658;28;20628;-70
2022/03/08 13:00:31;;;;;;;106.73;20.73;;;;;;;;;;5049210;28;20282;-71
2022/03/08 13:02:57;;;;;;;206.73;38.70;;;;;;;;;;5051524;28;20932;-70
2022/03/08 13:05:27;;;;;;;120.03;18.40;;;;;;;;;;5030116;28;21043;-73
2022/03/08 13:07:54;;;;;;;162.80;23.87;;;;;;;;;;5044145;28;20328;-70
2022/03/08 13:10:20;;;;;;;120.17;18.83;;;;;;;;;;5048244;28;20199;-71
2022/03/08 13:12:52;;;;;;;131.50;21.53;;;;;;;;;;5045861;28;20197;-72
2022/03/08 13:15:22;;;;;;;120.10;22.00;;;;;;;;;;5036040;28;20225;-70
2022/03/08 13:17:49;;;;;;;178.13;34.27;;;;;;;;;;5041801;28;20949;-70
2022/03/08 13:20:32;;;;;;;134.57;21.83;;;;;;;;;;5023705;28;20194;-68
2022/03/08 13:23:08;;;;;;;171.77;29.80;;;;;;;;;;5029410;28;20391;-71
2022/03/08 13:25:35;;;;;;;148.97;26.33;;;;;;;;;;5041457;28;20197;-71
2022/03/08 13:28:14;;;;;;;160.73;32.13;;;;;;;;;;5044666;28;20214;-70
2022/03/08 13:30:44;;;;;;;182.73;27.88;;;;;;;;;;5048351;28;20294;-71
2022/03/08 13:33:10;;;;;;;120.68;19.27;;;;;;;;;;5047441;28;20685;-71
2022/03/08 13:35:37;;;;;;;122.45;19.80;;;;;;;;;;5041993;28;20305;-74
2022/03/08 13:38:03;;;;;;;132.30;21.73;;;;;;;;;;5043462;28;20884;-70
2022/03/08 13:40:31;;;;;;;202.23;31.90;;;;;;;;;;5042278;28;20186;-72
2022/03/08 13:42:57;;;;;;;255.13;39.03;;;;;;;;;;5035785;28;20179;-72
2022/03/08 13:45:24;;;;;;;121.28;21.83;;;;;;;;;;5040405;28;20198;-70
2022/03/08 13:47:55;;;;;;;120.40;24.35;;;;;;;;;;5046209;28;20293;-71
2022/03/08 13:50:22;;;;;;;147.00;31.45;;;;;;;;;;5033422;28;20256;-69
2022/03/08 13:52:52;;;;;;;145.50;29.90;;;;;;;;;;5046802;28;20225;-77
2022/03/08 13:55:18;;;;;;;113.88;23.55;;;;;;;;;;5051652;28;20186;-72
2022/03/08 13:57:58;;;;;;;171.95;36.55;;;;;;;;;;5030523;28;20217;-71
2022/03/08 14:00:32;;;;;;;142.73;35.17;;;;;;;;;;5043319;28;20194;-71
2022/03/08 14:02:58;;;;;;;173.43;40.63;;;;;;;;;;5052449;28;20182;-72
2022/03/08 14:05:24;;;;;;;430.20;106.85;;;;;;;;;;5035138;28;20183;-77
2022/03/08 14:08:03;;;;;;;236.25;60.28;;;;;;;;;;5038107;28;20296;-71
2022/03/08 14:10:30;;;;;;;220.55;58.20;;;;;;;;;;5042879;28;20628;-70
2022/03/08 14:12:58;;;;;;;207.15;48.58;;;;;;;;;;5038577;28;20175;-72